createdAt,value
2022-07-31T00:03:19.127Z,10.00
2022-07-31T00:08:23.624Z,10.30
2022-07-31T00:13:57.798Z,9.97
2022-07-31T00:18:49.628Z,11.17
2022-07-31T00:23:54.387Z,9.27
2022-07-31T00:28:57.470Z,9.87
2022-07-31T00:34:00.511Z,10.13
2022-07-31T00:39:05.213Z,10.07
2022-07-31T00:44:12.126Z,10.33
2022-07-31T00:49:15.582Z,10.10
2022-07-31T00:54:22.519Z,10.10
2022-07-31T00:59:26.337Z,9.60
2022-07-31T01:04:31.106Z,10.23
2022-07-31T01:09:37.396Z,9.10
2022-07-31T01:14:44.853Z,9.40
2022-07-31T01:19:49.888Z,9.57
2022-07-31T01:25:05.266Z,9.17
2022-07-31T01:30:30.615Z,9.80
2022-07-31T01:35:42.019Z,10.30
2022-07-31T01:40:48.564Z,9.60
2022-07-31T01:45:57.419Z,9.53
2022-07-31T01:51:04.115Z,9.10
2022-07-31T01:56:08.691Z,9.30
2022-07-31T02:01:16.574Z,9.00
2022-07-31T02:06:21.552Z,9.80
2022-07-31T02:11:25.020Z,8.20
2022-07-31T02:16:30.600Z,8.80
2022-07-31T02:21:43.084Z,8.73
2022-07-31T02:26:49.000Z,9.00
2022-07-31T02:32:02.801Z,8.50
2022-07-31T02:37:16.489Z,9.10
2022-07-31T02:42:20.504Z,9.30
2022-07-31T02:47:25.286Z,8.90
2022-07-31T02:52:30.016Z,8.50
2022-07-31T02:57:33.157Z,8.33
2022-07-31T03:02:37.931Z,8.00
2022-07-31T03:07:41.789Z,8.40
2022-07-31T03:12:49.134Z,8.30
2022-07-31T03:17:54.997Z,8.50
2022-07-31T03:23:08.528Z,8.57
2022-07-31T03:28:24.025Z,9.07
2022-07-31T03:33:28.574Z,8.10
2022-07-31T03:38:39.728Z,8.40
2022-07-31T03:44:02.364Z,8.20
2022-07-31T03:49:09.580Z,7.70
2022-07-31T03:54:13.010Z,7.27
2022-07-31T03:59:21.580Z,6.90
2022-07-31T04:04:26.377Z,7.47
2022-07-31T04:09:38.695Z,6.97
2022-07-31T04:14:42.857Z,6.70
2022-07-31T04:19:49.620Z,7.00
2022-07-31T04:24:53.389Z,7.40
2022-07-31T04:30:03.017Z,6.87
2022-07-31T04:35:09.575Z,6.00
2022-07-31T04:40:13.331Z,6.80
2022-07-31T04:45:16.403Z,5.80
2022-07-31T04:50:21.079Z,6.40
2022-07-31T04:55:34.706Z,6.20
2022-07-31T05:00:37.814Z,6.30
2022-07-31T05:05:45.374Z,5.90
2022-07-31T05:11:05.962Z,5.87
2022-07-31T05:16:12.632Z,5.17
2022-07-31T05:21:17.968Z,5.90
2022-07-31T05:26:32.305Z,6.00
2022-07-31T05:31:35.432Z,5.50
2022-07-31T05:36:39.962Z,5.00
2022-07-31T05:41:44.584Z,5.60
2022-07-31T05:51:56.483Z,5.03
2022-07-31T05:56:59.971Z,5.20
2022-07-31T06:02:10.951Z,5.43
2022-07-31T06:07:52.108Z,5.50
2022-07-31T06:12:57.398Z,5.67
2022-07-31T06:18:00.693Z,5.10
2022-07-31T06:23:19.832Z,5.13
2022-07-31T06:28:49.297Z,5.03
2022-07-31T06:33:54.396Z,4.57
2022-07-31T06:39:02.691Z,4.90
2022-07-31T06:44:05.792Z,4.55
2022-07-31T06:49:27.286Z,4.80
2022-07-31T06:54:31.746Z,4.38
2022-07-31T06:59:39.951Z,5.00
2022-07-31T07:05:01.530Z,5.00
2022-07-31T07:10:09.060Z,4.75
2022-07-31T07:15:30.769Z,5.28
2022-07-31T07:20:34.016Z,5.00
2022-07-31T07:25:38.788Z,6.35
2022-07-31T07:30:44.513Z,5.53
2022-07-31T07:35:48.796Z,4.80
2022-07-31T07:40:56.379Z,5.75
2022-07-31T07:46:00.098Z,5.20
2022-07-31T07:51:03.106Z,4.95
2022-07-31T07:56:11.969Z,5.30
2022-07-31T08:01:40.638Z,4.45
2022-07-31T08:06:53.240Z,5.38
2022-07-31T08:12:01.398Z,4.60
2022-07-31T08:17:42.839Z,5.20
2022-07-31T08:22:47.559Z,5.47
2022-07-31T08:27:52.005Z,5.65
2022-07-31T08:32:56.984Z,5.93
2022-07-31T08:38:25.950Z,5.85
2022-07-31T08:44:01.370Z,6.18
2022-07-31T08:49:12.927Z,5.90
2022-07-31T08:54:21.394Z,5.13
2022-07-31T08:59:25.861Z,5.75
2022-07-31T09:04:30.191Z,5.47
2022-07-31T09:09:50.792Z,5.00
2022-07-31T09:14:56.433Z,5.88
2022-07-31T09:19:59.469Z,5.32
2022-07-31T09:25:12.057Z,6.13
2022-07-31T09:30:17.158Z,5.63
2022-07-31T09:35:49.008Z,5.10
2022-07-31T09:40:57.024Z,5.93
2022-07-31T09:46:25.392Z,4.82
2022-07-31T09:51:39.522Z,5.70
2022-07-31T09:56:46.838Z,5.10
2022-07-31T10:01:51.387Z,6.25
2022-07-31T10:06:57.761Z,5.82
2022-07-31T10:12:03.232Z,6.20
2022-07-31T10:17:10.957Z,5.68
2022-07-31T10:22:33.452Z,6.18
2022-07-31T10:27:39.362Z,5.68
2022-07-31T10:32:48.324Z,6.30
2022-07-31T10:38:20.604Z,6.18
2022-07-31T10:43:37.163Z,6.30
2022-07-31T10:49:00.742Z,6.68
2022-07-31T10:54:40.869Z,8.13
2022-07-31T11:00:12.009Z,7.65
2022-07-31T11:06:01.651Z,8.07
2022-07-31T11:11:17.615Z,7.43
2022-07-31T11:16:30.358Z,6.68
2022-07-31T11:21:49.085Z,6.68
2022-07-31T11:26:53.056Z,7.63
2022-07-31T11:31:56.534Z,6.63
2022-07-31T11:37:01.883Z,6.55
2022-07-31T11:42:09.600Z,6.78
2022-07-31T11:48:09.969Z,6.78
2022-07-31T11:52:38.662Z,6.60
2022-07-31T11:57:51.299Z,6.72
2022-07-31T12:02:55.769Z,6.30
2022-07-31T12:08:00.485Z,5.60
2022-07-31T12:13:04.703Z,5.45
2022-07-31T12:18:08.045Z,5.40
2022-07-31T12:23:40.652Z,5.72
2022-07-31T12:28:36.192Z,5.40
2022-07-31T12:33:43.530Z,4.65
2022-07-31T12:38:49.063Z,5.05
2022-07-31T12:43:52.825Z,5.38
2022-07-31T12:48:55.991Z,5.60
2022-07-31T12:54:00.421Z,4.88
2022-07-31T12:59:03.531Z,4.30
2022-07-31T13:04:08.013Z,3.75
2022-07-31T13:09:22.923Z,4.25
2022-07-31T13:14:26.422Z,4.60
2022-07-31T13:19:29.579Z,4.45
2022-07-31T13:24:34.009Z,3.63
2022-07-31T13:29:36.993Z,4.55
2022-07-31T13:34:40.001Z,5.28
2022-07-31T13:39:44.384Z,4.72
2022-07-31T13:44:47.389Z,5.10
2022-07-31T13:49:50.494Z,4.43
2022-07-31T13:54:54.919Z,4.97
2022-07-31T13:59:57.927Z,4.65
2022-07-31T14:05:00.945Z,4.10
2022-07-31T14:10:06.301Z,3.47
2022-07-31T14:15:10.169Z,3.80
2022-07-31T14:20:13.885Z,3.50
2022-07-31T14:25:18.305Z,3.05
2022-07-31T14:30:22.073Z,3.03
2022-07-31T14:35:26.051Z,3.78
2022-07-31T14:40:30.939Z,3.00
2022-07-31T14:45:38.266Z,2.53
2022-07-31T14:50:54.564Z,2.83
2022-07-31T14:56:03.612Z,2.80
2022-07-31T15:01:07.210Z,2.58
2022-07-31T15:06:39.953Z,2.47
2022-07-31T15:11:59.251Z,3.28
2022-07-31T15:16:57.781Z,2.53
2022-07-31T15:22:15.900Z,2.83
2022-07-31T15:27:21.965Z,3.25
2022-07-31T15:32:25.226Z,3.00
2022-07-31T15:37:30.272Z,3.50
2022-07-31T15:42:38.117Z,2.80
2022-07-31T15:47:42.329Z,3.33
2022-07-31T15:52:45.416Z,2.95
2022-07-31T15:57:49.843Z,3.53
2022-07-31T16:02:53.060Z,2.90
2022-07-31T16:08:32.081Z,3.10
2022-07-31T16:13:20.375Z,2.67
2022-07-31T16:18:23.503Z,2.90
2022-07-31T16:23:27.990Z,2.83
2022-07-31T16:28:32.373Z,3.67
2022-07-31T16:33:35.371Z,3.00
2022-07-31T16:38:38.353Z,2.80
2022-07-31T16:43:49.556Z,2.63
2022-07-31T16:48:54.773Z,2.80
2022-07-31T16:54:13.153Z,3.00
2022-07-31T16:59:20.583Z,2.90
2022-07-31T17:04:23.601Z,2.72
2022-07-31T17:09:28.572Z,2.78
2022-07-31T17:14:32.967Z,2.97
2022-07-31T17:19:45.904Z,2.53
2022-07-31T17:24:51.728Z,2.78
2022-07-31T17:29:56.237Z,2.60
2022-07-31T17:34:59.256Z,2.60
2022-07-31T17:40:02.297Z,2.70
2022-07-31T17:45:08.036Z,2.60
2022-07-31T17:50:11.775Z,2.10
2022-07-31T17:55:14.789Z,2.58
2022-07-31T18:00:19.630Z,2.60
2022-07-31T18:05:22.657Z,2.60
2022-07-31T18:10:51.847Z,2.20
2022-07-31T18:15:50.327Z,2.50
2022-07-31T18:20:53.284Z,2.58
2022-07-31T18:25:57.053Z,2.70
2022-07-31T18:31:01.843Z,2.13
2022-07-31T18:36:05.485Z,2.20
2022-07-31T18:41:08.473Z,2.22
2022-07-31T18:46:12.841Z,2.70
2022-07-31T18:51:15.928Z,2.50
2022-07-31T18:56:19.169Z,2.58
2022-07-31T19:01:24.617Z,2.40
2022-07-31T19:06:27.838Z,2.60
2022-07-31T19:11:31.370Z,2.45
2022-07-31T19:16:35.789Z,2.80
2022-07-31T19:21:41.301Z,3.13
2022-07-31T19:26:44.972Z,3.10
2022-07-31T19:31:49.516Z,2.90
2022-07-31T19:36:52.543Z,2.72
2022-07-31T19:42:21.341Z,3.13
2022-07-31T19:47:20.253Z,3.38
2022-07-31T19:52:23.730Z,3.33
2022-07-31T19:57:26.729Z,3.22
2022-07-31T20:02:31.121Z,3.03
2022-07-31T20:07:34.315Z,3.42
2022-07-31T20:12:37.440Z,3.40
2022-07-31T20:17:41.911Z,3.38
2022-07-31T20:22:45.162Z,3.05
2022-07-31T20:27:48.196Z,3.42
2022-07-31T20:32:52.954Z,3.25
2022-07-31T20:37:57.441Z,3.17
2022-07-31T20:43:03.302Z,4.00
2022-07-31T20:48:08.346Z,3.70
2022-07-31T20:53:11.443Z,3.10
2022-07-31T20:58:14.520Z,3.53
2022-07-31T21:03:19.341Z,3.47
2022-07-31T21:08:22.446Z,3.83
2022-07-31T21:13:26.638Z,3.15
2022-07-31T21:18:34.711Z,3.50
2022-07-31T21:23:38.336Z,3.78
2022-07-31T21:28:41.701Z,3.30
2022-07-31T21:33:46.862Z,3.58
2022-07-31T21:38:50.240Z,3.88
2022-07-31T21:43:59.210Z,3.95
2022-07-31T21:49:04.395Z,3.88
2022-07-31T21:54:07.568Z,4.13
2022-07-31T21:59:10.553Z,4.20
2022-07-31T22:04:15.062Z,3.75
2022-07-31T22:09:19.039Z,4.28
2022-07-31T22:14:22.403Z,3.97
2022-07-31T22:19:27.361Z,3.83
2022-07-31T22:24:30.828Z,4.53
2022-07-31T22:29:36.438Z,3.90
2022-07-31T22:34:41.089Z,4.10
2022-07-31T22:39:44.427Z,4.23
2022-07-31T22:44:47.917Z,4.10
2022-07-31T22:49:52.504Z,3.55
2022-07-31T22:54:55.498Z,4.10
2022-07-31T22:59:59.028Z,4.38
2022-07-31T23:05:03.492Z,4.85
2022-07-31T23:10:07.377Z,4.07
2022-07-31T23:15:10.428Z,3.80
2022-07-31T23:20:15.322Z,4.07
2022-07-31T23:25:20.761Z,4.30
2022-07-31T23:30:24.321Z,4.17
2022-07-31T23:35:28.707Z,4.30
2022-07-31T23:40:31.912Z,4.07
2022-07-31T23:45:35.979Z,4.93
2022-07-31T23:50:40.365Z,4.00
2022-07-31T23:55:43.490Z,4.53
